Time,TemperatureF,DewpointF,PressureIn,WindDirection,WindDirectionDegrees,WindSpeedMPH,WindSpeedGustMPH,Humidity,HourlyPrecipIn,Conditions,Clouds,dailyrainin,SoftwareType,DateUTC
2013-10-09 00:04:00,41.8,41.0,30.39,North,358,0.0,0.0,97,0.00,,CLR,0.00,VWS V14.00,2013-10-09 04:04:00,
2013-10-09 00:05:00,41.7,40.7,30.39,North,358,0.0,0.0,96,0.00,,CLR,0.00,VWS V14.00,2013-10-09 04:05:00,
2013-10-09 00:10:00,41.7,40.9,30.39,North,358,0.0,0.0,97,0.00,,CLR,0.00,VWS V14.00,2013-10-09 04:10:00,
2013-10-09 00:15:00,41.7,40.9,30.39,North,358,0.0,0.0,97,0.00,,CLR,0.00,VWS V14.00,2013-10-09 04:15:00,
2013-10-09 00:20:00,41.5,40.7,30.39,North,358,0.0,0.0,97,0.00,,CLR,0.00,VWS V14.00,2013-10-09 04:20:00,
2013-10-09 00:25:00,41.4,40.6,30.39,North,358,0.0,0.0,97,0.00,,CLR,0.00,VWS V14.00,2013-10-09 04:25:00,
2013-10-09 00:30:00,41.4,40.6,30.39,North,358,0.0,0.0,97,0.00,,CLR,0.00,VWS V14.00,2013-10-09 04:30:00,
2013-10-09 00:35:00,41.3,41.0,30.39,North,358,0.0,0.0,99,0.00,,CLR,0.00,VWS V14.00,2013-10-09 04:35:00,
2013-10-09 00:40:00,41.3,41.0,30.39,North,358,0.0,0.0,99,0.00,,CLR,0.00,VWS V14.00,2013-10-09 04:40:00,
2013-10-09 00:45:00,41.2,40.9,30.39,North,358,0.0,0.0,99,0.00,,CLR,0.00,VWS V14.00,2013-10-09 04:45:00,
2013-10-09 00:50:00,41.3,41.0,30.40,North,358,0.0,0.0,99,0.00,,CLR,0.00,VWS V14.00,2013-10-09 04:50:00,
2013-10-09 00:55:00,41.1,40.6,30.39,North,358,0.0,0.0,98,0.00,,CLR,0.00,VWS V14.00,2013-10-09 04:55:00,
2013-10-09 01:00:00,41.1,40.8,30.40,North,358,0.0,0.0,99,0.00,,CLR,0.00,VWS V14.00,2013-10-09 05:00:00,
2013-10-09 01:05:00,41.1,40.8,30.40,North,358,0.0,0.0,99,0.00,,CLR,0.00,VWS V14.00,2013-10-09 05:05:00,
2013-10-09 01:10:00,41.1,40.8,30.40,North,358,0.0,0.0,99,0.00,,CLR,0.00,VWS V14.00,2013-10-09 05:10:00,
2013-10-09 01:15:00,41.1,40.8,30.40,North,358,0.0,0.0,99,0.00,,CLR,0.00,VWS V14.00,2013-10-09 05:15:00,
2013-10-09 01:20:00,41.0,40.7,30.40,North,358,0.0,1.0,99,0.00,,CLR,0.00,VWS V14.00,2013-10-09 05:20:00,
2013-10-09 01:25:00,41.0,40.7,30.40,North,358,1.0,2.0,99,0.00,,CLR,0.00,VWS V14.00,2013-10-09 05:25:00,
2013-10-09 01:30:00,41.0,40.7,30.40,North,358,0.0,0.0,99,0.00,,CLR,0.00,VWS V14.00,2013-10-09 05:30:00,
2013-10-09 01:35:00,41.0,40.7,30.40,North,358,0.0,0.0,99,0.00,,CLR,0.00,VWS V14.00,2013-10-09 05:35:00,
2013-10-09 01:40:00,40.8,40.5,30.40,North,358,0.0,0.0,99,0.00,,CLR,0.00,VWS V14.00,2013-10-09 05:40:00,
2013-10-09 01:45:00,40.8,40.5,30.40,North,358,0.0,0.0,99,0.00,,CLR,0.00,VWS V14.00,2013-10-09 05:45:00,
2013-10-09 01:50:00,40.8,40.5,30.40,North,358,0.0,3.0,99,0.00,,CLR,0.00,VWS V14.00,2013-10-09 05:50:00,
2013-10-09 01:55:00,40.8,40.5,30.40,North,358,0.0,3.0,99,0.00,,CLR,0.00,VWS V14.00,2013-10-09 05:55:00,
2013-10-09 02:00:00,41.0,40.7,30.40,North,358,0.0,0.0,99,0.00,,CLR,0.00,VWS V14.00,2013-10-09 06:00:00,
2013-10-09 02:05:00,41.0,40.7,30.40,North,358,0.0,2.0,99,0.00,,CLR,0.00,VWS V14.00,2013-10-09 06:05:00,
2013-10-09 02:10:00,41.0,40.7,30.40,North,358,0.0,2.0,99,0.00,,CLR,0.00,VWS V14.00,2013-10-09 06:10:00,
2013-10-09 02:15:00,41.0,40.7,30.40,North,358,0.0,2.0,99,0.00,,CLR,0.00,VWS V14.00,2013-10-09 06:15:00,
2013-10-09 02:20:00,41.1,40.8,30.40,North,358,0.0,2.0,99,0.00,,CLR,0.00,VWS V14.00,2013-10-09 06:20:00,
2013-10-09 02:25:00,41.1,40.8,30.41,North,358,0.0,2.0,99,0.00,,CLR,0.00,VWS V14.00,2013-10-09 06:25:00,
2013-10-09 02:30:00,41.1,40.8,30.40,North,358,0.0,0.0,99,0.00,,CLR,0.00,VWS V14.00,2013-10-09 06:30:00,
2013-10-09 02:35:00,41.2,41.2,30.41,North,358,0.0,1.0,100,0.00,,CLR,0.00,VWS V14.00,2013-10-09 06:35:00,
2013-10-09 02:40:00,41.2,41.2,30.40,North,358,0.0,1.0,100,0.00,,CLR,0.00,VWS V14.00,2013-10-09 06:40:00,
2013-10-09 02:45:00,41.2,40.9,30.40,North,358,0.0,1.0,99,0.00,,CLR,0.00,VWS V14.00,2013-10-09 06:45:00,
2013-10-09 02:50:00,41.3,41.0,30.40,North,358,0.0,1.0,99,0.00,,CLR,0.00,VWS V14.00,2013-10-09 06:50:00,
2013-10-09 02:55:00,41.1,40.8,30.40,North,358,0.0,1.0,99,0.00,,CLR,0.00,VWS V14.00,2013-10-09 06:55:00,
2013-10-09 03:00:00,41.1,40.8,30.40,North,358,0.0,1.0,99,0.00,,CLR,0.00,VWS V14.00,2013-10-09 07:00:00,
2013-10-09 03:05:00,41.0,40.7,30.40,North,358,0.0,0.0,99,0.00,,CLR,0.00,VWS V14.00,2013-10-09 07:05:00,
2013-10-09 03:10:00,41.0,40.5,30.40,North,358,0.0,0.0,98,0.00,,CLR,0.00,VWS V14.00,2013-10-09 07:10:00,
2013-10-09 03:15:00,40.8,40.5,30.40,North,358,0.0,0.0,99,0.00,,CLR,0.00,VWS V14.00,2013-10-09 07:15:00,
2013-10-09 03:20:00,40.7,40.4,30.41,North,358,0.0,0.0,99,0.00,,CLR,0.00,VWS V14.00,2013-10-09 07:20:00,
2013-10-09 03:25:00,40.7,40.4,30.41,North,358,0.0,0.0,99,0.00,,CLR,0.00,VWS V14.00,2013-10-09 07:25:00,
2013-10-09 03:30:00,40.5,40.2,30.41,North,358,0.0,0.0,99,0.00,,CLR,0.00,VWS V14.00,2013-10-09 07:30:00,
2013-10-09 03:35:00,40.5,40.2,30.41,North,358,0.0,0.0,99,0.00,,CLR,0.00,VWS V14.00,2013-10-09 07:35:00,
2013-10-09 03:40:00,40.4,40.1,30.41,North,358,0.0,0.0,99,0.00,,CLR,0.00,VWS V14.00,2013-10-09 07:40:00,
2013-10-09 03:45:00,40.4,40.1,30.41,North,358,0.0,0.0,99,0.00,,CLR,0.00,VWS V14.00,2013-10-09 07:45:00,
2013-10-09 03:50:00,40.3,40.0,30.41,North,358,0.0,0.0,99,0.00,,CLR,0.00,VWS V14.00,2013-10-09 07:50:00,
2013-10-09 03:55:00,40.1,39.8,30.41,North,358,0.0,0.0,99,0.00,,CLR,0.00,VWS V14.00,2013-10-09 07:55:00,
2013-10-09 04:00:00,40.0,39.7,30.41,North,358,0.0,0.0,99,0.00,,CLR,0.00,VWS V14.00,2013-10-09 08:00:00,
2013-10-09 04:05:00,39.8,39.8,30.41,North,358,0.0,0.0,100,0.00,,CLR,0.00,VWS V14.00,2013-10-09 08:05:00,
2013-10-09 04:10:00,39.7,39.7,30.41,North,358,0.0,0.0,100,0.00,,CLR,0.00,VWS V14.00,2013-10-09 08:10:00,
2013-10-09 04:15:00,39.7,39.7,30.42,North,358,0.0,0.0,100,0.00,,CLR,0.00,VWS V14.00,2013-10-09 08:15:00,
2013-10-09 04:20:00,39.7,39.7,30.42,North,358,0.0,2.0,100,0.00,,CLR,0.00,VWS V14.00,2013-10-09 08:20:00,
2013-10-09 04:25:00,39.5,39.5,30.42,North,358,0.0,2.0,100,0.00,,CLR,0.00,VWS V14.00,2013-10-09 08:25:00,
2013-10-09 04:30:00,39.4,39.4,30.43,North,358,0.0,2.0,100,0.00,,CLR,0.00,VWS V14.00,2013-10-09 08:30:00,
2013-10-09 04:35:00,39.4,39.4,30.42,North,358,0.0,0.0,100,0.00,,CLR,0.00,VWS V14.00,2013-10-09 08:35:00,
2013-10-09 04:40:00,39.3,39.3,30.43,North,358,0.0,0.0,100,0.00,,CLR,0.00,VWS V14.00,2013-10-09 08:40:00,
2013-10-09 04:45:00,39.1,39.1,30.43,North,358,0.0,0.0,100,0.00,,CLR,0.00,VWS V14.00,2013-10-09 08:45:00,
2013-10-09 04:50:00,39.1,39.1,30.43,North,358,0.0,0.0,100,0.00,,CLR,0.00,VWS V14.00,2013-10-09 08:50:00,
2013-10-09 04:55:00,39.0,39.0,30.43,North,358,0.0,0.0,100,0.00,,CLR,0.00,VWS V14.00,2013-10-09 08:55:00,
2013-10-09 05:00:00,39.0,39.0,30.42,North,358,0.0,0.0,100,0.00,,CLR,0.00,VWS V14.00,2013-10-09 09:00:00,
2013-10-09 05:05:00,38.8,38.8,30.42,North,358,0.0,0.0,100,0.00,,CLR,0.00,VWS V14.00,2013-10-09 09:05:00,
2013-10-09 05:10:00,38.8,38.8,30.43,North,358,0.0,0.0,100,0.00,,CLR,0.00,VWS V14.00,2013-10-09 09:10:00,
2013-10-09 05:15:00,38.9,38.9,30.43,North,358,0.0,0.0,100,0.00,,CLR,0.00,VWS V14.00,2013-10-09 09:15:00,
2013-10-09 05:20:00,38.7,38.7,30.43,North,358,0.0,0.0,100,0.00,,CLR,0.00,VWS V14.00,2013-10-09 09:20:00,
2013-10-09 05:25:00,38.8,38.8,30.43,North,358,0.0,0.0,100,0.00,,CLR,0.00,VWS V14.00,2013-10-09 09:25:00,
2013-10-09 05:30:00,38.7,38.7,30.43,North,358,0.0,0.0,100,0.00,,CLR,0.00,VWS V14.00,2013-10-09 09:30:00,
2013-10-09 05:35:00,38.8,38.8,30.44,North,358,0.0,0.0,100,0.00,,CLR,0.00,VWS V14.00,2013-10-09 09:35:00,
2013-10-09 05:40:00,38.9,38.9,30.44,North,358,0.0,0.0,100,0.00,,CLR,0.00,VWS V14.00,2013-10-09 09:40:00,
2013-10-09 05:45:00,38.8,38.8,30.43,North,358,1.0,1.0,100,0.00,,CLR,0.00,VWS V14.00,2013-10-09 09:45:00,
2013-10-09 05:50:00,38.8,38.8,30.44,North,358,0.0,1.0,100,0.00,,CLR,0.00,VWS V14.00,2013-10-09 09:50:00,
2013-10-09 05:55:00,38.8,38.8,30.43,North,358,0.0,1.0,100,0.00,,CLR,0.00,VWS V14.00,2013-10-09 09:55:00,
2013-10-09 06:00:00,38.8,38.8,30.44,North,358,0.0,1.0,100,0.00,,CLR,0.00,VWS V14.00,2013-10-09 10:00:00,
2013-10-09 06:05:00,38.7,38.7,30.44,North,358,0.0,0.0,100,0.00,,CLR,0.00,VWS V14.00,2013-10-09 10:05:00,
2013-10-09 06:10:00,38.7,38.7,30.44,North,358,0.0,0.0,100,0.00,,CLR,0.00,VWS V14.00,2013-10-09 10:10:00,
2013-10-09 06:15:00,38.5,38.5,30.44,North,358,0.0,0.0,100,0.00,,CLR,0.00,VWS V14.00,2013-10-09 10:15:00,
2013-10-09 06:20:00,38.4,38.4,30.44,North,358,0.0,0.0,100,0.00,,CLR,0.00,VWS V14.00,2013-10-09 10:20:00,
2013-10-09 06:25:00,38.1,38.1,30.44,North,358,0.0,0.0,100,0.00,,CLR,0.00,VWS V14.00,2013-10-09 10:25:00,
2013-10-09 06:30:00,38.0,38.0,30.44,North,358,0.0,0.0,100,0.00,,CLR,0.00,VWS V14.00,2013-10-09 10:30:00,
2013-10-09 06:35:00,38.0,38.0,30.45,North,358,0.0,0.0,100,0.00,,CLR,0.00,VWS V14.00,2013-10-09 10:35:00,
2013-10-09 06:40:00,37.8,37.8,30.44,North,358,0.0,0.0,100,0.00,,CLR,0.00,VWS V14.00,2013-10-09 10:40:00,
2013-10-09 06:45:00,37.7,37.7,30.45,North,358,0.0,0.0,100,0.00,,CLR,0.00,VWS V14.00,2013-10-09 10:45:00,
2013-10-09 06:50:00,37.7,37.7,30.45,North,358,0.0,0.0,100,0.00,,CLR,0.00,VWS V14.00,2013-10-09 10:50:00,
2013-10-09 06:54:00,37.6,37.6,30.45,North,358,0.0,0.0,100,0.00,,CLR,0.00,VWS V14.00,2013-10-09 10:54:00,
2013-10-09 06:59:00,37.5,37.5,30.45,North,358,0.0,0.0,100,0.00,,CLR,0.00,VWS V14.00,2013-10-09 10:59:00,
2013-10-09 07:04:00,37.5,37.5,30.44,North,358,0.0,0.0,100,0.00,,CLR,0.00,VWS V14.00,2013-10-09 11:04:00,
2013-10-09 07:09:00,37.5,37.5,30.45,North,358,0.0,0.0,100,0.00,,CLR,0.00,VWS V14.00,2013-10-09 11:09:00,
2013-10-09 07:14:00,37.5,37.5,30.45,North,358,0.0,0.0,100,0.00,,CLR,0.00,VWS V14.00,2013-10-09 11:14:00,
2013-10-09 07:19:00,37.7,37.7,30.45,North,358,0.0,0.0,100,0.00,,CLR,0.00,VWS V14.00,2013-10-09 11:19:00,
2013-10-09 07:25:00,37.8,37.8,30.44,North,358,0.0,0.0,100,0.00,,CLR,0.00,VWS V14.00,2013-10-09 11:25:00,
2013-10-09 07:29:00,38.0,38.0,30.46,North,358,0.0,0.0,100,0.00,,CLR,0.00,VWS V14.00,2013-10-09 11:29:00,
2013-10-09 07:34:00,38.1,38.1,30.45,North,358,0.0,0.0,100,0.00,,CLR,0.00,VWS V14.00,2013-10-09 11:34:00,
2013-10-09 07:39:00,38.4,38.4,30.45,North,358,0.0,0.0,100,0.00,,CLR,0.00,VWS V14.00,2013-10-09 11:39:00,
2013-10-09 07:44:00,38.7,38.7,30.45,North,358,0.0,0.0,100,0.00,,CLR,0.00,VWS V14.00,2013-10-09 11:44:00,
2013-10-09 07:49:00,39.0,39.0,30.46,North,358,0.0,0.0,100,0.00,,CLR,0.00,VWS V14.00,2013-10-09 11:49:00,
2013-10-09 07:54:00,39.2,39.2,30.45,North,358,0.0,0.0,100,0.00,,CLR,0.00,VWS V14.00,2013-10-09 11:54:00,
2013-10-09 07:59:00,39.7,39.7,30.46,North,358,0.0,0.0,100,0.00,,CLR,0.00,VWS V14.00,2013-10-09 11:59:00,
2013-10-09 08:03:00,40.0,40.0,30.46,North,358,0.0,0.0,100,0.00,,BKN250,0.00,VWS V14.00,2013-10-09 12:03:00,
2013-10-09 08:08:00,40.3,40.3,30.47,North,358,0.0,0.0,100,0.00,,BKN250,0.00,VWS V14.00,2013-10-09 12:08:00,
2013-10-09 08:13:00,40.5,40.5,30.46,North,358,0.0,0.0,100,0.00,,BKN250,0.00,VWS V14.00,2013-10-09 12:13:00,
2013-10-09 08:18:00,40.8,40.8,30.47,North,358,0.0,0.0,100,0.00,,BKN250,0.00,VWS V14.00,2013-10-09 12:18:00,
2013-10-09 08:23:00,41.3,41.3,30.47,North,358,0.0,1.0,100,0.00,,BKN250,0.00,VWS V14.00,2013-10-09 12:23:00,
2013-10-09 08:28:00,41.5,41.5,30.47,North,358,0.0,1.0,100,0.00,,BKN250,0.00,VWS V14.00,2013-10-09 12:28:00,
2013-10-09 08:33:00,42.1,42.1,30.47,North,358,0.0,0.0,100,0.00,,BKN250,0.00,VWS V14.00,2013-10-09 12:33:00,
2013-10-09 08:38:00,42.5,42.5,30.47,North,358,0.0,0.0,100,0.00,,BKN250,0.00,VWS V14.00,2013-10-09 12:38:00,
2013-10-09 08:43:00,43.1,43.1,30.47,NE,53,0.0,1.0,100,0.00,,BKN250,0.00,VWS V14.00,2013-10-09 12:43:00,
2013-10-09 08:48:00,43.8,43.8,30.47,NE,52,0.0,1.0,100,0.00,,BKN250,0.00,VWS V14.00,2013-10-09 12:48:00,
2013-10-09 08:53:00,44.5,44.5,30.48,NE,52,0.0,1.0,100,0.00,,BKN250,0.00,VWS V14.00,2013-10-09 12:53:00,
2013-10-09 08:58:00,45.2,45.2,30.47,NE,52,0.0,1.0,100,0.00,,BKN250,0.00,VWS V14.00,2013-10-09 12:58:00,
2013-10-09 09:03:00,45.6,45.6,30.47,NE,52,0.0,0.0,100,0.00,,CLR,0.00,VWS V14.00,2013-10-09 13:03:00,
2013-10-09 09:08:00,46.2,46.2,30.47,NE,52,0.0,0.0,100,0.00,,CLR,0.00,VWS V14.00,2013-10-09 13:08:00,
2013-10-09 09:13:00,46.6,46.6,30.48,NE,49,0.0,3.0,100,0.00,,CLR,0.00,VWS V14.00,2013-10-09 13:13:00,
2013-10-09 09:18:00,47.4,47.4,30.47,NE,49,0.0,3.0,100,0.00,,CLR,0.00,VWS V14.00,2013-10-09 13:18:00,
2013-10-09 09:23:00,47.9,47.9,30.48,North,9,1.0,5.0,100,0.00,,CLR,0.00,VWS V14.00,2013-10-09 13:23:00,
2013-10-09 09:28:00,48.6,48.6,30.48,North,357,0.0,5.0,100,0.00,,CLR,0.00,VWS V14.00,2013-10-09 13:28:00,
2013-10-09 09:33:00,49.1,48.8,30.48,North,357,0.0,0.0,99,0.00,,CLR,0.00,VWS V14.00,2013-10-09 13:33:00,
2013-10-09 09:38:00,49.8,49.3,30.48,NNE,24,0.0,5.0,98,0.00,,CLR,0.00,VWS V14.00,2013-10-09 13:38:00,
2013-10-09 09:43:00,50.3,49.2,30.49,NNE,24,1.0,5.0,96,0.00,,CLR,0.00,VWS V14.00,2013-10-09 13:43:00,
2013-10-09 09:48:00,50.9,49.5,30.49,NNE,23,0.0,5.0,95,0.00,,CLR,0.00,VWS V14.00,2013-10-09 13:48:00,
2013-10-09 09:53:00,51.5,49.5,30.48,NNE,23,0.0,5.0,93,0.00,,CLR,0.00,VWS V14.00,2013-10-09 13:53:00,
2013-10-09 09:58:00,52.1,49.6,30.49,NNE,23,0.0,5.0,91,0.00,,CLR,0.00,VWS V14.00,2013-10-09 13:58:00,
2013-10-09 10:03:00,52.8,49.3,30.49,NNE,23,0.0,0.0,88,0.00,,CLR,0.00,VWS V14.00,2013-10-09 14:03:00,
2013-10-09 10:08:00,53.1,49.3,30.48,NNE,23,0.0,4.0,87,0.00,,CLR,0.00,VWS V14.00,2013-10-09 14:08:00,
2013-10-09 10:13:00,53.2,49.1,30.47,NNE,24,2.0,4.0,86,0.00,,CLR,0.00,VWS V14.00,2013-10-09 14:13:00,
2013-10-09 10:18:00,53.4,49.0,30.47,North,1,0.0,5.0,85,0.00,,CLR,0.00,VWS V14.00,2013-10-09 14:18:00,
2013-10-09 10:23:00,53.7,49.3,30.47,North,1,0.0,5.0,85,0.00,,CLR,0.00,VWS V14.00,2013-10-09 14:23:00,
2013-10-09 10:28:00,54.1,49.4,30.48,North,11,0.0,5.0,84,0.00,,CLR,0.00,VWS V14.00,2013-10-09 14:28:00,
2013-10-09 10:33:00,54.4,49.3,30.47,North,11,0.0,1.0,83,0.00,,CLR,0.00,VWS V14.00,2013-10-09 14:33:00,
2013-10-09 10:38:00,54.8,49.7,30.48,North,6,0.0,4.0,83,0.00,,CLR,0.00,VWS V14.00,2013-10-09 14:38:00,
2013-10-09 10:43:00,55.3,49.2,30.48,NNE,21,2.0,6.0,80,0.00,,CLR,0.00,VWS V14.00,2013-10-09 14:43:00,
2013-10-09 10:48:00,55.3,49.2,30.47,NNE,28,0.0,6.0,80,0.00,,CLR,0.00,VWS V14.00,2013-10-09 14:48:00,
2013-10-09 10:53:00,55.3,48.9,30.47,NNE,27,1.0,6.0,79,0.00,,CLR,0.00,VWS V14.00,2013-10-09 14:53:00,
2013-10-09 10:58:00,55.4,49.0,30.47,NNE,27,0.0,6.0,79,0.00,,CLR,0.00,VWS V14.00,2013-10-09 14:58:00,
2013-10-09 11:03:00,55.9,49.5,30.47,NE,43,0.0,4.0,79,0.00,,BKN250,0.00,VWS V14.00,2013-10-09 15:03:00,
2013-10-09 11:08:00,56.2,49.4,30.47,North,1,2.0,5.0,78,0.00,,BKN250,0.00,VWS V14.00,2013-10-09 15:08:00,
2013-10-09 11:13:00,56.3,49.5,30.47,North,1,0.0,5.0,78,0.00,,BKN250,0.00,VWS V14.00,2013-10-09 15:13:00,
2013-10-09 11:18:00,56.0,48.9,30.47,North,0,1.0,6.0,77,0.00,,BKN250,0.00,VWS V14.00,2013-10-09 15:18:00,
2013-10-09 11:23:00,55.9,49.2,30.47,North,0,0.0,6.0,78,0.00,,BKN250,0.00,VWS V14.00,2013-10-09 15:23:00,
2013-10-09 11:28:00,55.7,48.6,30.47,North,0,0.0,6.0,77,0.00,,BKN250,0.00,VWS V14.00,2013-10-09 15:28:00,
2013-10-09 11:33:00,55.9,49.2,30.47,North,0,0.0,5.0,78,0.00,,BKN250,0.00,VWS V14.00,2013-10-09 15:33:00,
2013-10-09 11:38:00,56.0,48.5,30.47,North,0,0.0,5.0,76,0.00,,BKN250,0.00,VWS V14.00,2013-10-09 15:38:00,
2013-10-09 11:43:00,56.6,48.8,30.47,NNW,347,1.0,5.0,75,0.00,,BKN250,0.00,VWS V14.00,2013-10-09 15:43:00,
2013-10-09 11:48:00,57.3,48.7,30.47,NNW,347,0.0,5.0,73,0.00,,BKN250,0.00,VWS V14.00,2013-10-09 15:48:00,
2013-10-09 11:53:00,58.1,49.5,30.47,NNW,342,2.0,5.0,73,0.00,,BKN250,0.00,VWS V14.00,2013-10-09 15:53:00,
2013-10-09 11:58:00,58.0,48.7,30.46,NNE,30,0.0,5.0,71,0.00,,BKN250,0.00,VWS V14.00,2013-10-09 15:58:00,
2013-10-09 12:03:00,57.5,48.6,30.47,NE,40,2.0,5.0,72,0.00,,CLR,0.00,VWS V14.00,2013-10-09 16:03:00,
2013-10-09 12:08:00,57.7,48.8,30.46,NE,40,0.0,5.0,72,0.00,,CLR,0.00,VWS V14.00,2013-10-09 16:08:00,
2013-10-09 12:13:00,57.8,48.5,30.47,East,79,3.0,5.0,71,0.00,,CLR,0.00,VWS V14.00,2013-10-09 16:13:00,
2013-10-09 12:18:00,57.5,48.2,30.47,East,81,0.0,5.0,71,0.00,,CLR,0.00,VWS V14.00,2013-10-09 16:18:00,
2013-10-09 12:23:00,58.3,49.0,30.46,NNE,28,4.0,5.0,71,0.00,,CLR,0.00,VWS V14.00,2013-10-09 16:23:00,
2013-10-09 12:28:00,59.2,49.8,30.46,NNE,31,2.0,5.0,71,0.00,,CLR,0.00,VWS V14.00,2013-10-09 16:28:00,
2013-10-09 12:33:00,59.5,48.9,30.45,NNE,33,0.0,3.0,68,0.00,,CLR,0.00,VWS V14.00,2013-10-09 16:33:00,
2013-10-09 12:38:00,59.3,48.8,30.45,North,5,6.0,7.0,68,0.00,,CLR,0.00,VWS V14.00,2013-10-09 16:38:00,
2013-10-09 12:43:00,59.5,49.3,30.45,North,0,1.0,7.0,69,0.00,,CLR,0.00,VWS V14.00,2013-10-09 16:43:00,
2013-10-09 12:48:00,59.5,48.9,30.45,NE,39,0.0,7.0,68,0.00,,CLR,0.00,VWS V14.00,2013-10-09 16:48:00,
2013-10-09 12:53:00,59.3,48.8,30.45,NNE,20,0.0,7.0,68,0.00,,CLR,0.00,VWS V14.00,2013-10-09 16:53:00,
2013-10-09 12:58:00,59.5,49.3,30.45,North,357,2.0,7.0,69,0.00,,CLR,0.00,VWS V14.00,2013-10-09 16:58:00,
2013-10-09 13:03:00,60.0,50.2,30.44,North,0,2.0,2.0,70,0.00,,CLR,0.00,VWS V14.00,2013-10-09 17:03:00,
2013-10-09 13:08:00,60.6,50.0,30.44,North,0,0.0,4.0,68,0.00,,CLR,0.00,VWS V14.00,2013-10-09 17:08:00,
2013-10-09 13:13:00,61.2,50.6,30.44,North,0,0.0,4.0,68,0.00,,CLR,0.00,VWS V14.00,2013-10-09 17:13:00,
2013-10-09 13:18:00,61.8,50.7,30.43,North,0,2.0,4.0,67,0.00,,CLR,0.00,VWS V14.00,2013-10-09 17:18:00,
2013-10-09 13:23:00,61.7,50.2,30.44,NE,42,2.0,5.0,66,0.00,,CLR,0.00,VWS V14.00,2013-10-09 17:23:00,
2013-10-09 13:28:00,61.4,50.0,30.43,NE,42,0.0,5.0,66,0.00,,CLR,0.00,VWS V14.00,2013-10-09 17:28:00,
2013-10-09 13:33:00,61.8,50.3,30.43,NE,44,0.0,4.0,66,0.00,,CLR,0.00,VWS V14.00,2013-10-09 17:33:00,
2013-10-09 13:38:00,62.1,49.8,30.43,NE,44,1.0,4.0,64,0.00,,CLR,0.00,VWS V14.00,2013-10-09 17:38:00,
2013-10-09 13:43:00,62.0,50.5,30.43,NE,47,2.0,4.0,66,0.00,,CLR,0.00,VWS V14.00,2013-10-09 17:43:00,
2013-10-09 13:48:00,62.0,49.3,30.43,ENE,61,2.0,4.0,63,0.00,,CLR,0.00,VWS V14.00,2013-10-09 17:48:00,
2013-10-09 13:53:00,61.8,49.5,30.43,ENE,61,0.0,5.0,64,0.00,,CLR,0.00,VWS V14.00,2013-10-09 17:53:00,
2013-10-09 13:58:00,61.7,49.4,30.43,ENE,61,0.0,5.0,64,0.00,,CLR,0.00,VWS V14.00,2013-10-09 17:58:00,
2013-10-09 14:03:00,61.4,48.7,30.43,ENE,62,1.0,3.0,63,0.00,,CLR,0.00,VWS V14.00,2013-10-09 18:03:00,
2013-10-09 14:08:00,61.1,48.4,30.43,ENE,62,2.0,4.0,63,0.00,,CLR,0.00,VWS V14.00,2013-10-09 18:08:00,
2013-10-09 14:13:00,61.5,49.2,30.43,NE,39,1.0,4.0,64,0.00,,CLR,0.00,VWS V14.00,2013-10-09 18:13:00,
2013-10-09 14:18:00,61.8,49.1,30.43,NE,41,1.0,4.0,63,0.00,,CLR,0.00,VWS V14.00,2013-10-09 18:18:00,
2013-10-09 14:23:00,61.5,48.8,30.42,NE,41,0.0,4.0,63,0.00,,CLR,0.00,VWS V14.00,2013-10-09 18:23:00,
2013-10-09 14:28:00,61.7,49.4,30.42,NE,41,1.0,4.0,64,0.00,,CLR,0.00,VWS V14.00,2013-10-09 18:28:00,
2013-10-09 14:33:00,61.8,49.1,30.42,NE,37,1.0,2.0,63,0.00,,CLR,0.00,VWS V14.00,2013-10-09 18:33:00,
2013-10-09 14:38:00,61.8,49.1,30.42,NE,37,0.0,2.0,63,0.00,,CLR,0.00,VWS V14.00,2013-10-09 18:38:00,
2013-10-09 14:43:00,61.4,48.7,30.42,NE,37,0.0,4.0,63,0.00,,CLR,0.00,VWS V14.00,2013-10-09 18:43:00,
2013-10-09 14:48:00,61.1,48.4,30.42,NE,37,0.0,4.0,63,0.00,,CLR,0.00,VWS V14.00,2013-10-09 18:48:00,
2013-10-09 14:53:00,60.7,47.6,30.42,NE,37,0.0,4.0,62,0.00,,CLR,0.00,VWS V14.00,2013-10-09 18:53:00,
2013-10-09 14:58:00,60.9,48.7,30.41,NE,37,1.0,4.0,64,0.00,,CLR,0.00,VWS V14.00,2013-10-09 18:58:00,
2013-10-09 15:03:00,61.0,48.8,30.41,NE,48,2.0,3.0,64,0.00,,CLR,0.00,VWS V14.00,2013-10-09 19:03:00,
2013-10-09 15:08:00,61.1,48.0,30.41,East,84,2.0,4.0,62,0.00,,CLR,0.00,VWS V14.00,2013-10-09 19:08:00,
2013-10-09 15:13:00,60.6,48.0,30.41,East,84,0.0,4.0,63,0.00,,CLR,0.00,VWS V14.00,2013-10-09 19:13:00,
2013-10-09 15:18:00,60.4,48.2,30.41,East,84,0.0,4.0,64,0.00,,CLR,0.00,VWS V14.00,2013-10-09 19:18:00,
2013-10-09 15:23:00,60.6,48.0,30.41,East,83,1.0,4.0,63,0.00,,CLR,0.00,VWS V14.00,2013-10-09 19:23:00,
2013-10-09 15:28:00,61.1,48.4,30.41,East,81,0.0,4.0,63,0.00,,CLR,0.00,VWS V14.00,2013-10-09 19:28:00,
2013-10-09 15:33:00,61.5,49.2,30.41,East,81,1.0,2.0,64,0.00,,CLR,0.00,VWS V14.00,2013-10-09 19:33:00,
2013-10-09 15:38:00,61.5,48.8,30.41,East,81,1.0,4.0,63,0.00,,CLR,0.00,VWS V14.00,2013-10-09 19:38:00,
2013-10-09 15:43:00,61.2,48.5,30.41,East,81,2.0,4.0,63,0.00,,CLR,0.00,VWS V14.00,2013-10-09 19:43:00,
2013-10-09 15:48:00,60.9,48.2,30.41,East,81,0.0,4.0,63,0.00,,CLR,0.00,VWS V14.00,2013-10-09 19:48:00,
2013-10-09 15:53:00,60.9,48.2,30.41,East,81,0.0,4.0,63,0.00,,CLR,0.00,VWS V14.00,2013-10-09 19:53:00,
2013-10-09 15:58:00,60.8,49.0,30.40,East,81,0.0,4.0,65,0.00,,CLR,0.00,VWS V14.00,2013-10-09 19:58:00,
2013-10-09 16:03:00,60.6,48.4,30.41,East,81,0.0,2.0,64,0.00,,CLR,0.00,VWS V14.00,2013-10-09 20:03:00,
2013-10-09 16:08:00,60.6,48.4,30.40,East,81,0.0,2.0,64,0.00,,CLR,0.00,VWS V14.00,2013-10-09 20:08:00,
2013-10-09 16:13:00,60.4,48.2,30.40,East,83,1.0,4.0,64,0.00,,CLR,0.00,VWS V14.00,2013-10-09 20:13:00,
2013-10-09 16:18:00,60.2,48.4,30.40,East,83,0.0,4.0,65,0.00,,CLR,0.00,VWS V14.00,2013-10-09 20:18:00,
2013-10-09 16:23:00,60.1,48.7,30.40,East,83,0.0,4.0,66,0.00,,CLR,0.00,VWS V14.00,2013-10-09 20:23:00,
2013-10-09 16:28:00,59.8,48.8,30.41,East,83,1.0,4.0,67,0.00,,CLR,0.00,VWS V14.00,2013-10-09 20:28:00,
2013-10-09 16:33:00,59.3,48.8,30.41,East,83,0.0,1.0,68,0.00,,CLR,0.00,VWS V14.00,2013-10-09 20:33:00,
2013-10-09 16:38:00,58.7,48.2,30.41,East,83,0.0,3.0,68,0.00,,CLR,0.00,VWS V14.00,2013-10-09 20:38:00,
2013-10-09 16:43:00,58.0,47.5,30.41,ENE,64,2.0,6.0,68,0.00,,CLR,0.00,VWS V14.00,2013-10-09 20:43:00,
2013-10-09 16:48:00,57.5,47.8,30.41,ENE,64,0.0,6.0,70,0.00,,CLR,0.00,VWS V14.00,2013-10-09 20:48:00,
2013-10-09 16:53:00,57.1,47.8,30.41,ENE,64,0.0,6.0,71,0.00,,CLR,0.00,VWS V14.00,2013-10-09 20:53:00,
2013-10-09 16:58:00,56.8,47.9,30.41,ENE,64,0.0,6.0,72,0.00,,CLR,0.00,VWS V14.00,2013-10-09 20:58:00,
2013-10-09 17:03:00,56.5,48.0,30.41,ENE,64,0.0,1.0,73,0.00,,CLR,0.00,VWS V14.00,2013-10-09 21:03:00,
2013-10-09 17:08:00,56.2,47.3,30.41,ENE,64,0.0,2.0,72,0.00,,CLR,0.00,VWS V14.00,2013-10-09 21:08:00,
2013-10-09 17:13:00,56.0,47.8,30.41,ENE,64,0.0,2.0,74,0.00,,CLR,0.00,VWS V14.00,2013-10-09 21:13:00,
2013-10-09 17:18:00,55.9,47.7,30.41,ENE,64,0.0,2.0,74,0.00,,CLR,0.00,VWS V14.00,2013-10-09 21:18:00,
2013-10-09 17:23:00,55.6,47.5,30.41,ENE,64,0.0,2.0,74,0.00,,CLR,0.00,VWS V14.00,2013-10-09 21:23:00,
2013-10-09 17:28:00,55.4,47.6,30.41,ENE,64,0.0,2.0,75,0.00,,CLR,0.00,VWS V14.00,2013-10-09 21:28:00,
2013-10-09 17:33:00,55.0,47.6,30.41,ENE,64,0.0,0.0,76,0.00,,CLR,0.00,VWS V14.00,2013-10-09 21:33:00,
2013-10-09 17:38:00,54.7,47.3,30.40,ENE,64,0.0,0.0,76,0.00,,CLR,0.00,VWS V14.00,2013-10-09 21:38:00,
2013-10-09 17:43:00,54.2,46.8,30.40,ENE,64,0.0,0.0,76,0.00,,CLR,0.00,VWS V14.00,2013-10-09 21:43:00,
2013-10-09 17:48:00,54.0,47.3,30.40,ENE,64,0.0,0.0,78,0.00,,CLR,0.00,VWS V14.00,2013-10-09 21:48:00,
2013-10-09 17:53:00,53.5,47.2,30.41,ENE,64,0.0,0.0,79,0.00,,CLR,0.00,VWS V14.00,2013-10-09 21:53:00,
2013-10-09 17:58:00,53.2,46.9,30.40,ENE,64,0.0,0.0,79,0.00,,CLR,0.00,VWS V14.00,2013-10-09 21:58:00,
2013-10-09 18:03:00,52.8,46.5,30.41,ENE,64,0.0,0.0,79,0.00,,CLR,0.00,VWS V14.00,2013-10-09 22:03:00,
2013-10-09 18:08:00,52.4,46.4,30.40,ENE,64,0.0,0.0,80,0.00,,CLR,0.00,VWS V14.00,2013-10-09 22:08:00,
2013-10-09 18:13:00,51.9,46.6,30.40,ENE,64,0.0,0.0,82,0.00,,CLR,0.00,VWS V14.00,2013-10-09 22:13:00,
2013-10-09 18:18:00,51.5,46.5,30.40,ENE,64,0.0,0.0,83,0.00,,CLR,0.00,VWS V14.00,2013-10-09 22:18:00,
2013-10-09 18:23:00,51.2,46.2,30.40,ENE,64,0.0,0.0,83,0.00,,CLR,0.00,VWS V14.00,2013-10-09 22:23:00,
2013-10-09 18:28:00,50.7,46.4,30.40,ENE,64,0.0,0.0,85,0.00,,CLR,0.00,VWS V14.00,2013-10-09 22:28:00,
2013-10-09 18:33:00,50.4,46.1,30.40,ENE,64,0.0,0.0,85,0.00,,CLR,0.00,VWS V14.00,2013-10-09 22:33:00,
2013-10-09 18:38:00,50.2,46.5,30.40,ENE,64,0.0,0.0,87,0.00,,CLR,0.00,VWS V14.00,2013-10-09 22:38:00,
2013-10-09 18:43:00,49.9,46.5,30.40,ENE,64,0.0,0.0,88,0.00,,CLR,0.00,VWS V14.00,2013-10-09 22:43:00,
2013-10-09 18:48:00,49.6,46.2,30.40,ENE,64,0.0,0.0,88,0.00,,CLR,0.00,VWS V14.00,2013-10-09 22:48:00,
2013-10-09 18:53:00,49.3,46.2,30.40,ENE,64,0.0,0.0,89,0.00,,CLR,0.00,VWS V14.00,2013-10-09 22:53:00,
2013-10-09 18:58:00,49.0,46.2,30.40,ENE,64,0.0,0.0,90,0.00,,CLR,0.00,VWS V14.00,2013-10-09 22:58:00,
2013-10-09 19:03:00,48.7,46.2,30.40,ENE,64,0.0,0.0,91,0.00,,CLR,0.00,VWS V14.00,2013-10-09 23:03:00,
2013-10-09 19:08:00,48.5,46.0,30.40,ENE,64,0.0,0.0,91,0.00,,CLR,0.00,VWS V14.00,2013-10-09 23:08:00,
2013-10-09 19:13:00,48.3,45.8,30.40,ENE,64,0.0,0.0,91,0.00,,CLR,0.00,VWS V14.00,2013-10-09 23:13:00,
2013-10-09 19:18:00,48.1,45.9,30.40,ENE,64,0.0,0.0,92,0.00,,CLR,0.00,VWS V14.00,2013-10-09 23:18:00,
2013-10-09 19:23:00,48.1,45.9,30.40,ENE,64,0.0,0.0,92,0.00,,CLR,0.00,VWS V14.00,2013-10-09 23:23:00,
2013-10-09 19:28:00,47.9,46.0,30.40,ENE,64,0.0,0.0,93,0.00,,CLR,0.00,VWS V14.00,2013-10-09 23:28:00,
2013-10-09 19:33:00,47.8,45.9,30.40,ENE,64,0.0,0.0,93,0.00,,CLR,0.00,VWS V14.00,2013-10-09 23:33:00,
2013-10-09 19:38:00,47.6,45.7,30.40,ENE,64,0.0,0.0,93,0.00,,CLR,0.00,VWS V14.00,2013-10-09 23:38:00,
2013-10-09 19:43:00,47.4,45.8,30.40,ENE,64,0.0,0.0,94,0.00,,CLR,0.00,VWS V14.00,2013-10-09 23:43:00,
2013-10-09 19:48:00,47.2,45.6,30.40,ENE,64,0.0,0.0,94,0.00,,CLR,0.00,VWS V14.00,2013-10-09 23:48:00,
2013-10-09 19:53:00,46.9,45.3,30.40,ENE,64,0.0,0.0,94,0.00,,CLR,0.00,VWS V14.00,2013-10-09 23:53:00,
2013-10-09 19:58:00,46.8,45.2,30.40,ENE,64,0.0,0.0,94,0.00,,CLR,0.00,VWS V14.00,2013-10-09 23:58:00,
2013-10-09 20:03:00,46.6,45.2,30.40,ENE,64,0.0,0.0,95,0.00,,CLR,0.00,VWS V14.00,2013-10-10 00:03:00,
2013-10-09 20:08:00,46.5,45.2,30.40,ENE,64,0.0,0.0,95,0.00,,CLR,0.00,VWS V14.00,2013-10-10 00:08:00,
2013-10-09 20:13:00,46.2,44.8,30.40,ENE,64,0.0,0.0,95,0.00,,CLR,0.00,VWS V14.00,2013-10-10 00:13:00,
2013-10-09 20:18:00,46.1,45.0,30.40,ENE,64,0.0,0.0,96,0.00,,CLR,0.00,VWS V14.00,2013-10-10 00:18:00,
2013-10-09 20:23:00,45.9,44.8,30.40,ENE,64,0.0,0.0,96,0.00,,CLR,0.00,VWS V14.00,2013-10-10 00:23:00,
2013-10-09 20:28:00,45.6,44.8,30.40,ENE,64,0.0,0.0,97,0.00,,CLR,0.00,VWS V14.00,2013-10-10 00:28:00,
2013-10-09 20:33:00,45.5,44.7,30.39,ENE,64,0.0,0.0,97,0.00,,CLR,0.00,VWS V14.00,2013-10-10 00:33:00,
2013-10-09 20:38:00,45.5,44.7,30.39,ENE,64,0.0,0.0,97,0.00,,CLR,0.00,VWS V14.00,2013-10-10 00:38:00,
2013-10-09 20:43:00,45.3,44.5,30.40,ENE,64,0.0,0.0,97,0.00,,CLR,0.00,VWS V14.00,2013-10-10 00:43:00,
2013-10-09 20:48:00,45.2,44.4,30.40,ENE,64,0.0,0.0,97,0.00,,CLR,0.00,VWS V14.00,2013-10-10 00:48:00,
2013-10-09 20:53:00,45.1,44.6,30.40,ENE,64,0.0,0.0,98,0.00,,CLR,0.00,VWS V14.00,2013-10-10 00:53:00,
2013-10-09 20:58:00,44.8,44.3,30.39,ENE,64,0.0,0.0,98,0.00,,CLR,0.00,VWS V14.00,2013-10-10 00:58:00,
2013-10-09 21:03:00,44.7,44.2,30.40,ENE,64,0.0,0.0,98,0.00,,CLR,0.00,VWS V14.00,2013-10-10 01:03:00,
2013-10-09 21:08:00,44.5,44.0,30.40,ENE,64,0.0,0.0,98,0.00,,CLR,0.00,VWS V14.00,2013-10-10 01:08:00,
2013-10-09 21:13:00,44.4,43.9,30.39,ENE,64,0.0,0.0,98,0.00,,CLR,0.00,VWS V14.00,2013-10-10 01:13:00,
2013-10-09 21:18:00,44.3,44.0,30.40,ENE,64,0.0,0.0,99,0.00,,CLR,0.00,VWS V14.00,2013-10-10 01:18:00,
2013-10-09 21:23:00,44.1,43.6,30.40,ENE,64,0.0,0.0,98,0.00,,CLR,0.00,VWS V14.00,2013-10-10 01:23:00,
2013-10-09 21:28:00,44.0,43.7,30.39,ENE,64,0.0,0.0,99,0.00,,CLR,0.00,VWS V14.00,2013-10-10 01:28:00,
2013-10-09 21:33:00,43.8,43.5,30.40,ENE,64,0.0,0.0,99,0.00,,CLR,0.00,VWS V14.00,2013-10-10 01:33:00,
2013-10-09 21:38:00,43.7,43.4,30.39,ENE,64,0.0,0.0,99,0.00,,CLR,0.00,VWS V14.00,2013-10-10 01:38:00,
2013-10-09 21:43:00,43.7,43.4,30.39,ENE,64,0.0,0.0,99,0.00,,CLR,0.00,VWS V14.00,2013-10-10 01:43:00,
2013-10-09 21:48:00,43.5,43.2,30.39,ENE,64,0.0,0.0,99,0.00,,CLR,0.00,VWS V14.00,2013-10-10 01:48:00,
2013-10-09 21:53:00,43.4,43.1,30.39,ENE,64,0.0,0.0,99,0.00,,CLR,0.00,VWS V14.00,2013-10-10 01:53:00,
2013-10-09 21:58:00,43.3,43.3,30.39,ENE,64,0.0,0.0,100,0.00,,CLR,0.00,VWS V14.00,2013-10-10 01:58:00,
2013-10-09 22:03:00,43.1,43.1,30.39,ENE,64,0.0,0.0,100,0.00,,CLR,0.00,VWS V14.00,2013-10-10 02:03:00,
2013-10-09 22:08:00,42.9,42.9,30.39,ENE,64,0.0,0.0,100,0.00,,CLR,0.00,VWS V14.00,2013-10-10 02:08:00,
2013-10-09 22:13:00,42.8,42.8,30.39,ENE,64,0.0,0.0,100,0.00,,CLR,0.00,VWS V14.00,2013-10-10 02:13:00,
2013-10-09 22:18:00,42.7,42.7,30.39,ENE,64,0.0,0.0,100,0.00,,CLR,0.00,VWS V14.00,2013-10-10 02:18:00,
2013-10-09 22:23:00,42.7,42.7,30.39,ENE,64,0.0,0.0,100,0.00,,CLR,0.00,VWS V14.00,2013-10-10 02:23:00,
2013-10-09 22:28:00,42.5,42.5,30.40,ENE,64,0.0,0.0,100,0.00,,CLR,0.00,VWS V14.00,2013-10-10 02:28:00,
2013-10-09 22:33:00,42.5,42.5,30.39,ENE,64,0.0,0.0,100,0.00,,CLR,0.00,VWS V14.00,2013-10-10 02:33:00,
2013-10-09 22:38:00,42.4,42.4,30.39,ENE,64,0.0,0.0,100,0.00,,CLR,0.00,VWS V14.00,2013-10-10 02:38:00,
2013-10-09 22:43:00,42.4,42.4,30.39,ENE,64,0.0,0.0,100,0.00,,CLR,0.00,VWS V14.00,2013-10-10 02:43:00,
2013-10-09 22:48:00,42.4,42.4,30.39,ENE,64,0.0,0.0,100,0.00,,CLR,0.00,VWS V14.00,2013-10-10 02:48:00,
2013-10-09 22:53:00,42.3,42.3,30.39,ENE,64,0.0,0.0,100,0.00,,CLR,0.00,VWS V14.00,2013-10-10 02:53:00,
2013-10-09 22:58:00,42.3,42.3,30.39,ENE,64,0.0,0.0,100,0.00,,CLR,0.00,VWS V14.00,2013-10-10 02:58:00,
2013-10-09 23:03:00,42.3,42.3,30.39,ENE,64,0.0,0.0,100,0.00,,CLR,0.00,VWS V14.00,2013-10-10 03:03:00,
2013-10-09 23:08:00,42.1,42.1,30.39,ENE,64,0.0,0.0,100,0.00,,CLR,0.00,VWS V14.00,2013-10-10 03:08:00,
2013-10-09 23:13:00,42.1,42.1,30.39,ENE,64,0.0,0.0,100,0.00,,CLR,0.00,VWS V14.00,2013-10-10 03:13:00,
2013-10-09 23:18:00,42.0,42.0,30.38,ENE,64,0.0,0.0,100,0.00,,CLR,0.00,VWS V14.00,2013-10-10 03:18:00,
2013-10-09 23:23:00,41.8,41.8,30.38,ENE,64,0.0,0.0,100,0.00,,CLR,0.00,VWS V14.00,2013-10-10 03:23:00,
2013-10-09 23:28:00,41.7,41.7,30.38,ENE,64,0.0,0.0,100,0.00,,CLR,0.00,VWS V14.00,2013-10-10 03:28:00,
2013-10-09 23:33:00,41.5,41.5,30.38,ENE,64,0.0,0.0,100,0.00,,CLR,0.00,VWS V14.00,2013-10-10 03:33:00,
2013-10-09 23:38:00,41.4,41.4,30.38,ENE,64,0.0,0.0,100,0.00,,CLR,0.00,VWS V14.00,2013-10-10 03:38:00,
2013-10-09 23:43:00,41.4,41.4,30.38,ENE,64,0.0,0.0,100,0.00,,CLR,0.00,VWS V14.00,2013-10-10 03:43:00,
2013-10-09 23:48:00,41.4,41.4,30.38,ENE,64,0.0,0.0,100,0.00,,CLR,0.00,VWS V14.00,2013-10-10 03:48:00,
2013-10-09 23:53:00,41.4,41.4,30.38,ENE,64,0.0,0.0,100,0.00,,CLR,0.00,VWS V14.00,2013-10-10 03:53:00,
2013-10-09 23:58:00,41.4,41.4,30.38,ENE,64,0.0,0.0,100,0.00,,CLR,0.00,VWS V14.00,2013-10-10 03:58:00,